Time;durP1;ratioP1;P1;durP2;ratioP2;P2;SDS_P1;SDS_P2;PMS_P1;PMS_P2;Temp;Humidity;BMP_temperature;BMP_pressure;BME280_temperature;BME280_humidity;BME280_pressure;Samples;Min_cycle;Max_cycle;Signal;HPM_P1;HPM_P2
2023/08/03 00:03:27;;;;;;;5.05;2.45;;;;;;;;;;8458795;28;20071;-91
2023/08/03 00:07:30;;;;;;;4.43;2.50;;;;;;;;;;8457549;28;20050;-91
2023/08/03 00:11:34;;;;;;;4.25;2.30;;;;;;;;;;8444177;28;20119;-92
2023/08/03 00:15:37;;;;;;;5.18;2.85;;;;;;;;;;8448195;28;20048;-90
2023/08/03 00:19:40;;;;;;;3.83;2.30;;;;;;;;;;8440483;28;20075;-86
2023/08/03 00:23:43;;;;;;;4.78;2.70;;;;;;;;;;8456399;28;20071;-91
2023/08/03 00:27:47;;;;;;;4.72;2.75;;;;;;;;;;8441306;28;20059;-91
2023/08/03 00:31:50;;;;;;;5.80;2.72;;;;;;;;;;8466367;28;20047;-87
2023/08/03 00:35:53;;;;;;;6.13;2.47;;;;;;;;;;8453089;28;20475;-94
2023/08/03 00:39:56;;;;;;;5.28;2.63;;;;;;;;;;8445797;28;20415;-89
2023/08/03 00:44:00;;;;;;;4.55;2.65;;;;;;;;;;8459139;28;20047;-90
2023/08/03 00:48:04;;;;;;;4.75;2.70;;;;;;;;;;8452374;28;20036;-92
2023/08/03 00:52:07;;;;;;;6.15;2.67;;;;;;;;;;8465613;28;20052;-89
2023/08/03 00:56:10;;;;;;;5.88;2.63;;;;;;;;;;8459187;28;20051;-90
2023/08/03 01:00:15;;;;;;;3.33;2.20;;;;;;;;;;8462598;28;20067;-93
2023/08/03 01:04:18;;;;;;;4.78;2.40;;;;;;;;;;8457449;28;20491;-91
2023/08/03 01:08:21;;;;;;;5.78;2.80;;;;;;;;;;8437128;28;20391;-90
2023/08/03 01:12:24;;;;;;;7.40;2.33;;;;;;;;;;8441687;28;20122;-87
2023/08/03 01:16:29;;;;;;;4.95;2.70;;;;;;;;;;8458792;28;20047;-89
2023/08/03 01:20:33;;;;;;;4.35;2.50;;;;;;;;;;8465474;28;20044;-90
2023/08/03 01:24:38;;;;;;;5.03;2.42;;;;;;;;;;8463073;28;20122;-93
2023/08/03 01:28:41;;;;;;;4.78;2.40;;;;;;;;;;8450943;28;20463;-90
2023/08/03 01:32:44;;;;;;;4.13;2.45;;;;;;;;;;8463729;28;20035;-91
2023/08/03 01:36:47;;;;;;;4.72;2.80;;;;;;;;;;8463889;28;20126;-89
2023/08/03 01:40:51;;;;;;;5.15;2.53;;;;;;;;;;8463183;27;20459;-91
2023/08/03 01:44:54;;;;;;;5.32;2.83;;;;;;;;;;8464308;28;20043;-93
2023/08/03 01:48:57;;;;;;;4.13;2.30;;;;;;;;;;8456039;28;20135;-88
2023/08/03 01:53:00;;;;;;;5.03;2.40;;;;;;;;;;8449306;28;20126;-87
2023/08/03 01:57:05;;;;;;;4.18;2.65;;;;;;;;;;8463019;28;20487;-90
2023/08/03 02:01:08;;;;;;;11.40;2.53;;;;;;;;;;8449397;28;20051;-92
2023/08/03 02:05:10;;;;;;;4.78;2.47;;;;;;;;;;8461669;28;20399;-86
2023/08/03 02:09:13;;;;;;;6.10;3.08;;;;;;;;;;8450225;28;20126;-91
2023/08/03 02:13:17;;;;;;;5.88;2.70;;;;;;;;;;8440674;28;20158;-85
2023/08/03 02:17:20;;;;;;;7.22;2.58;;;;;;;;;;8463057;28;20131;-86
2023/08/03 02:21:23;;;;;;;4.45;2.53;;;;;;;;;;8463048;28;20044;-91
2023/08/03 02:25:26;;;;;;;5.22;2.78;;;;;;;;;;8437174;28;20053;-90
2023/08/03 02:29:30;;;;;;;5.97;2.60;;;;;;;;;;8449779;28;20096;-86
2023/08/03 02:33:33;;;;;;;5.28;2.70;;;;;;;;;;8455412;28;20048;-87
2023/08/03 02:37:36;;;;;;;4.80;2.50;;;;;;;;;;8429731;28;20553;-87
2023/08/03 02:41:39;;;;;;;4.55;2.50;;;;;;;;;;8467586;28;20122;-91
2023/08/03 02:45:43;;;;;;;4.78;2.60;;;;;;;;;;8455610;28;20039;-87
2023/08/03 02:49:46;;;;;;;4.03;2.28;;;;;;;;;;8435548;28;20040;-90
2023/08/03 02:53:49;;;;;;;5.45;2.60;;;;;;;;;;8449023;28;20457;-86
2023/08/03 02:57:52;;;;;;;4.63;2.55;;;;;;;;;;8435964;28;20127;-86
2023/08/03 03:01:57;;;;;;;5.63;2.85;;;;;;;;;;8462484;28;20056;-86
2023/08/03 03:05:59;;;;;;;3.72;2.42;;;;;;;;;;8456148;28;20126;-89
2023/08/03 03:10:02;;;;;;;3.47;2.28;;;;;;;;;;8441255;28;20130;-87
2023/08/03 03:14:05;;;;;;;4.63;2.58;;;;;;;;;;8454794;28;20067;-88
2023/08/03 03:18:09;;;;;;;3.25;2.20;;;;;;;;;;8454583;28;20047;-87
2023/08/03 03:22:12;;;;;;;4.07;2.25;;;;;;;;;;8454813;28;20043;-90
2023/08/03 03:26:15;;;;;;;7.72;2.53;;;;;;;;;;8454951;28;20069;-86
2023/08/03 03:30:18;;;;;;;5.18;2.58;;;;;;;;;;8448669;28;20605;-86
2023/08/03 03:34:23;;;;;;;5.65;2.78;;;;;;;;;;8447796;28;20465;-90
2023/08/03 03:38:25;;;;;;;4.00;2.60;;;;;;;;;;8454716;28;20403;-86
2023/08/03 03:42:28;;;;;;;7.03;2.78;;;;;;;;;;8468052;28;20043;-87
2023/08/03 03:46:31;;;;;;;4.57;2.60;;;;;;;;;;8467768;28;20043;-90
2023/08/03 03:50:35;;;;;;;3.70;2.40;;;;;;;;;;8467306;28;20047;-86
2023/08/03 03:54:38;;;;;;;5.43;2.35;;;;;;;;;;8467093;28;20050;-91
2023/08/03 03:58:41;;;;;;;3.65;2.30;;;;;;;;;;8455025;28;20043;-87
2023/08/03 04:02:44;;;;;;;5.35;2.45;;;;;;;;;;8440409;28;20052;-87
2023/08/03 04:06:49;;;;;;;4.18;2.38;;;;;;;;;;8453728;28;20050;-90
2023/08/03 04:10:51;;;;;;;4.90;2.22;;;;;;;;;;8460758;28;20064;-86
2023/08/03 04:14:54;;;;;;;4.80;2.28;;;;;;;;;;8461207;28;20043;-92
2023/08/03 04:18:57;;;;;;;4.32;2.50;;;;;;;;;;8453655;28;20061;-91
2023/08/03 04:23:02;;;;;;;4.55;2.40;;;;;;;;;;8466645;28;20127;-88
2023/08/03 04:27:05;;;;;;;3.90;2.22;;;;;;;;;;8445744;28;20040;-86
2023/08/03 04:31:08;;;;;;;4.85;2.40;;;;;;;;;;8433218;28;20424;-86
2023/08/03 04:35:10;;;;;;;3.70;2.50;;;;;;;;;;8454535;28;20574;-87
2023/08/03 04:39:15;;;;;;;3.58;2.17;;;;;;;;;;8448828;28;20193;-87
2023/08/03 04:43:18;;;;;;;4.78;2.20;;;;;;;;;;8452009;28;20082;-87
2023/08/03 04:47:21;;;;;;;4.90;2.70;;;;;;;;;;8465314;28;20515;-93
2023/08/03 04:51:24;;;;;;;7.30;2.60;;;;;;;;;;8453532;28;20483;-86
2023/08/03 04:55:28;;;;;;;5.90;2.90;;;;;;;;;;8466237;28;20048;-87
2023/08/03 04:59:31;;;;;;;4.30;2.40;;;;;;;;;;8452273;28;20131;-86
2023/08/03 05:03:34;;;;;;;3.78;2.30;;;;;;;;;;8451207;28;20449;-86
2023/08/03 05:07:37;;;;;;;3.97;2.13;;;;;;;;;;8431886;28;20047;-89
2023/08/03 05:11:41;;;;;;;7.60;2.33;;;;;;;;;;8444388;28;20047;-88
2023/08/03 05:15:44;;;;;;;4.05;2.08;;;;;;;;;;8438311;28;20039;-88
2023/08/03 05:19:47;;;;;;;4.05;2.30;;;;;;;;;;8465129;28;20043;-89
2023/08/03 05:23:49;;;;;;;4.72;2.50;;;;;;;;;;8445137;28;20032;-87
2023/08/03 05:27:54;;;;;;;4.60;2.20;;;;;;;;;;8458554;28;20052;-89
2023/08/03 05:31:57;;;;;;;3.95;2.47;;;;;;;;;;8442587;28;20040;-89
2023/08/03 05:36:00;;;;;;;4.22;2.20;;;;;;;;;;8446186;28;20040;-88
2023/08/03 05:40:07;;;;;;;5.72;2.50;;;;;;;;;;8463184;28;20050;-90
2023/08/03 05:44:14;;;;;;;5.82;2.22;;;;;;;;;;8463556;28;20035;-86
2023/08/03 05:48:20;;;;;;;5.13;2.47;;;;;;;;;;8452841;28;20412;-85
2023/08/03 05:52:23;;;;;;;4.07;2.10;;;;;;;;;;8449358;28;20527;-87
2023/08/03 05:56:26;;;;;;;3.33;2.20;;;;;;;;;;8453117;28;20104;-89
2023/08/03 06:00:31;;;;;;;3.35;2.03;;;;;;;;;;8445073;28;20056;-90
2023/08/03 06:04:34;;;;;;;3.55;2.13;;;;;;;;;;8461311;28;20036;-86
2023/08/03 06:08:45;;;;;;;7.90;3.88;;;;;;;;;;8462706;28;20063;-86
2023/08/03 06:12:48;;;;;;;3.38;2.35;;;;;;;;;;8428048;28;20064;-87
2023/08/03 06:16:52;;;;;;;4.20;2.67;;;;;;;;;;8454899;28;20115;-85
2023/08/03 06:20:55;;;;;;;5.43;2.78;;;;;;;;;;8447561;28;20122;-86
2023/08/03 06:24:59;;;;;;;4.35;2.15;;;;;;;;;;8447769;28;20052;-89
2023/08/03 06:29:05;;;;;;;3.60;2.10;;;;;;;;;;8437980;28;20043;-86
2023/08/03 06:33:12;;;;;;;3.55;2.17;;;;;;;;;;8446055;28;20050;-87
2023/08/03 06:37:19;;;;;;;4.55;2.83;;;;;;;;;;8438917;28;20130;-89
2023/08/03 06:41:44;;;;;;;3.33;1.92;;;;;;;;;;8442495;28;20052;-87
2023/08/03 06:46:17;;;;;;;2.65;1.83;;;;;;;;;;8455498;28;20047;-87
2023/08/03 06:50:31;;;;;;;2.45;1.88;;;;;;;;;;8436627;28;20054;-90
2023/08/03 06:54:34;;;;;;;3.15;2.08;;;;;;;;;;8444836;28;20153;-88
2023/08/03 06:58:37;;;;;;;3.10;1.90;;;;;;;;;;8454740;28;20075;-88
2023/08/03 07:02:40;;;;;;;2.75;1.73;;;;;;;;;;8443038;28;20131;-90
2023/08/03 07:06:45;;;;;;;2.50;1.77;;;;;;;;;;8443577;28;20139;-92
2023/08/03 07:10:48;;;;;;;3.80;1.75;;;;;;;;;;8450863;28;20047;-93
2023/08/03 07:14:52;;;;;;;2.85;1.83;;;;;;;;;;8456063;28;20167;-88
2023/08/03 07:18:56;;;;;;;3.08;1.85;;;;;;;;;;8449856;28;20476;-90
2023/08/03 07:23:01;;;;;;;2.85;1.70;;;;;;;;;;8453134;28;20728;-87
2023/08/03 07:27:05;;;;;;;4.75;1.70;;;;;;;;;;8455837;28;20043;-87
2023/08/03 07:31:14;;;;;;;3.00;1.80;;;;;;;;;;8462970;28;20448;-87
2023/08/03 07:35:17;;;;;;;3.25;1.90;;;;;;;;;;8463907;28;20452;-88
2023/08/03 07:39:28;;;;;;;2.78;1.90;;;;;;;;;;8450459;28;20104;-87
2023/08/03 07:43:31;;;;;;;4.85;1.95;;;;;;;;;;8449343;28;20047;-90
2023/08/03 07:47:34;;;;;;;3.65;1.90;;;;;;;;;;8450501;28;20046;-90
2023/08/03 07:51:37;;;;;;;3.33;1.60;;;;;;;;;;8454847;28;20577;-92
2023/08/03 07:55:42;;;;;;;2.55;1.80;;;;;;;;;;8446585;28;20051;-89
2023/08/03 07:59:53;;;;;;;4.35;1.65;;;;;;;;;;8457883;28;20056;-93
2023/08/03 08:03:56;;;;;;;;;;;;;;;;;;8446693;28;20040;-93
2023/08/03 08:08:01;;;;;;;4.10;1.85;;;;;;;;;;8453365;28;19927;-91
2023/08/03 08:12:11;;;;;;;2.88;1.98;;;;;;;;;;8449527;28;20123;-90
2023/08/03 08:16:15;;;;;;;3.20;2.17;;;;;;;;;;8462043;28;20134;-87
2023/08/03 08:20:25;;;;;;;2.60;1.70;;;;;;;;;;8461718;28;20043;-92
2023/08/03 08:24:29;;;;;;;5.37;2.00;;;;;;;;;;8454793;28;20399;-89
2023/08/03 08:28:34;;;;;;;3.55;2.30;;;;;;;;;;8463203;28;20150;-92
2023/08/03 08:32:41;;;;;;;3.42;2.00;;;;;;;;;;8463594;28;20498;-88
2023/08/03 08:36:44;;;;;;;2.65;1.70;;;;;;;;;;8462797;28;20130;-93
2023/08/03 08:40:48;;;;;;;3.70;1.88;;;;;;;;;;8462308;28;20217;-89
2023/08/03 08:44:52;;;;;;;2.70;1.80;;;;;;;;;;8461499;28;20043;-90
2023/08/03 08:48:55;;;;;;;3.17;1.88;;;;;;;;;;8436299;28;20393;-88
2023/08/03 08:52:58;;;;;;;4.45;1.88;;;;;;;;;;8442222;28;20039;-90
2023/08/03 08:57:01;;;;;;;2.95;2.00;;;;;;;;;;8460066;28;20096;-91
2023/08/03 09:01:05;;;;;;;3.88;1.83;;;;;;;;;;8448796;28;20110;-87
2023/08/03 09:05:14;;;;;;;2.90;1.67;;;;;;;;;;8453255;28;20046;-88
2023/08/03 09:09:26;;;;;;;2.90;1.92;;;;;;;;;;8447735;28;20096;-91
2023/08/03 09:13:31;;;;;;;3.72;1.83;;;;;;;;;;8458054;28;20050;-88
2023/08/03 09:17:36;;;;;;;3.40;1.92;;;;;;;;;;8453259;28;20480;-90
2023/08/03 09:21:39;;;;;;;4.32;2.17;;;;;;;;;;8449754;28;20098;-92
2023/08/03 09:25:52;;;;;;;2.70;1.85;;;;;;;;;;8454034;28;20093;-87
2023/08/03 09:30:00;;;;;;;5.30;2.00;;;;;;;;;;8447392;28;20085;-90
2023/08/03 09:34:05;;;;;;;3.60;1.90;;;;;;;;;;8447062;28;20496;-90
2023/08/03 09:38:24;;;;;;;2.58;1.75;;;;;;;;;;8445591;28;20055;-89
2023/08/03 09:42:31;;;;;;;3.33;1.90;;;;;;;;;;8453895;28;20051;-87
2023/08/03 09:46:36;;;;;;;2.90;1.90;;;;;;;;;;8454276;28;20463;-88
2023/08/03 09:50:52;;;;;;;3.35;2.10;;;;;;;;;;8435064;28;20046;-90
2023/08/03 09:55:12;;;;;;;3.03;2.10;;;;;;;;;;8451584;28;20046;-88
2023/08/03 09:59:19;;;;;;;4.03;2.17;;;;;;;;;;8449687;28;20040;-88
2023/08/03 10:03:28;;;;;;;3.13;2.15;;;;;;;;;;8448245;28;20063;-88
2023/08/03 10:07:39;;;;;;;4.25;2.03;;;;;;;;;;8453864;28;20047;-88
2023/08/03 10:11:46;;;;;;;4.00;2.13;;;;;;;;;;8451320;28;20122;-88
2023/08/03 10:15:50;;;;;;;3.47;1.85;;;;;;;;;;8437728;28;20043;-91
2023/08/03 10:19:54;;;;;;;4.80;2.20;;;;;;;;;;8451022;28;20044;-89
2023/08/03 10:24:15;;;;;;;3.65;1.98;;;;;;;;;;8447682;28;20074;-89
2023/08/03 10:28:18;;;;;;;4.35;2.03;;;;;;;;;;8428800;28;20515;-87
2023/08/03 10:32:25;;;;;;;2.35;1.75;;;;;;;;;;8445990;28;20502;-88
2023/08/03 10:36:55;;;;;;;2.75;1.70;;;;;;;;;;8446031;28;20406;-88
2023/08/03 10:41:25;;;;;;;4.57;1.83;;;;;;;;;;8420642;28;20071;-88
2023/08/03 10:45:29;;;;;;;4.03;1.95;;;;;;;;;;8431957;28;20055;-87
2023/08/03 10:49:52;;;;;;;4.32;1.92;;;;;;;;;;8445929;28;20083;-87
2023/08/03 10:53:55;;;;;;;3.53;2.10;;;;;;;;;;8445447;28;20571;-88
2023/08/03 10:58:02;;;;;;;2.47;1.70;;;;;;;;;;8445846;28;20044;-91
2023/08/03 11:02:14;;;;;;;3.10;1.90;;;;;;;;;;8441961;28;20093;-88
2023/08/03 11:06:17;;;;;;;3.88;2.10;;;;;;;;;;8446562;28;20384;-89
2023/08/03 11:10:24;;;;;;;2.75;1.90;;;;;;;;;;8463155;28;20054;-86
2023/08/03 11:14:29;;;;;;;3.17;1.92;;;;;;;;;;8447588;28;20043;-94
2023/08/03 11:18:35;;;;;;;4.43;1.90;;;;;;;;;;8447729;28;20054;-90
2023/08/03 11:22:41;;;;;;;3.55;2.00;;;;;;;;;;8451564;28;20046;-91
2023/08/03 11:26:48;;;;;;;3.47;1.77;;;;;;;;;;8452795;28;20048;-90
2023/08/03 11:30:52;;;;;;;4.68;2.00;;;;;;;;;;8452463;28;20050;-89
2023/08/03 11:34:59;;;;;;;7.00;2.00;;;;;;;;;;8453195;28;20513;-92
2023/08/03 11:39:03;;;;;;;5.13;1.90;;;;;;;;;;8454314;28;20101;-89
2023/08/03 11:43:06;;;;;;;5.50;2.38;;;;;;;;;;8453015;28;20051;-88
2023/08/03 11:47:11;;;;;;;4.05;1.98;;;;;;;;;;8454143;28;20119;-86
2023/08/03 11:51:14;;;;;;;3.42;1.92;;;;;;;;;;8464619;28;20123;-86
2023/08/03 11:55:28;;;;;;;3.92;1.77;;;;;;;;;;8458736;28;20051;-91
2023/08/03 11:59:31;;;;;;;3.15;1.90;;;;;;;;;;8465364;28;20490;-90
2023/08/03 12:03:36;;;;;;;4.22;1.80;;;;;;;;;;8464305;28;20072;-89
2023/08/03 12:07:40;;;;;;;4.03;2.08;;;;;;;;;;8445968;28;20040;-86
2023/08/03 12:11:43;;;;;;;3.03;1.80;;;;;;;;;;8445737;28;20044;-87
2023/08/03 12:15:46;;;;;;;3.58;1.80;;;;;;;;;;8459627;28;20369;-85
2023/08/03 12:19:50;;;;;;;4.25;1.65;;;;;;;;;;8460531;28;20047;-92
2023/08/03 12:23:53;;;;;;;3.50;1.77;;;;;;;;;;8461001;28;20096;-87
2023/08/03 12:27:56;;;;;;;5.60;1.98;;;;;;;;;;8448207;28;20063;-87
2023/08/03 12:31:59;;;;;;;3.15;1.88;;;;;;;;;;8440345;28;20112;-88
2023/08/03 12:36:04;;;;;;;4.82;2.03;;;;;;;;;;8447192;28;20155;-86
2023/08/03 12:40:08;;;;;;;3.85;1.80;;;;;;;;;;8444307;28;20081;-90
2023/08/03 12:44:11;;;;;;;3.30;1.90;;;;;;;;;;8444757;28;20066;-87
2023/08/03 12:48:15;;;;;;;2.53;1.80;;;;;;;;;;8437723;28;20445;-86
2023/08/03 12:52:20;;;;;;;3.20;1.90;;;;;;;;;;8455085;28;20044;-91
2023/08/03 12:56:23;;;;;;;4.03;1.95;;;;;;;;;;8436023;28;20071;-89
2023/08/03 13:00:27;;;;;;;3.53;2.00;;;;;;;;;;8450957;28;20082;-94
2023/08/03 13:04:33;;;;;;;6.18;2.00;;;;;;;;;;8445337;28;20491;-86
2023/08/03 13:08:38;;;;;;;5.65;2.00;;;;;;;;;;8453725;28;20035;-86
2023/08/03 13:12:43;;;;;;;4.25;1.67;;;;;;;;;;8445302;28;20052;-92
2023/08/03 13:16:47;;;;;;;4.88;1.92;;;;;;;;;;8450794;28;20122;-92
2023/08/03 13:20:50;;;;;;;4.90;2.08;;;;;;;;;;8446321;28;20043;-91
2023/08/03 13:24:55;;;;;;;3.20;1.75;;;;;;;;;;8447960;28;20044;-87
2023/08/03 13:28:58;;;;;;;5.60;2.33;;;;;;;;;;8452249;28;20110;-90
2023/08/03 13:33:01;;;;;;;4.60;2.05;;;;;;;;;;8437457;28;20515;-87
2023/08/03 13:37:05;;;;;;;4.32;1.98;;;;;;;;;;8449774;28;20111;-89
2023/08/03 13:41:11;;;;;;;5.32;2.05;;;;;;;;;;8441399;28;20499;-91
2023/08/03 13:45:14;;;;;;;4.13;1.90;;;;;;;;;;8440395;28;20051;-92
2023/08/03 13:49:18;;;;;;;3.22;2.08;;;;;;;;;;8445120;28;20122;-89
2023/08/03 13:53:21;;;;;;;3.15;1.75;;;;;;;;;;8444737;28;20047;-90
2023/08/03 13:57:26;;;;;;;3.33;1.90;;;;;;;;;;8445493;28;20048;-88
2023/08/03 14:01:36;;;;;;;3.58;1.92;;;;;;;;;;8447755;28;20124;-87
2023/08/03 14:05:40;;;;;;;;;;;;;;;;;;8448721;28;20384;-88
2023/08/03 14:09:44;;;;;;;7.95;2.00;;;;;;;;;;8453237;28;19924;-87
2023/08/03 14:13:48;;;;;;;3.53;2.17;;;;;;;;;;8444311;28;20052;-93
2023/08/03 14:17:51;;;;;;;4.82;2.10;;;;;;;;;;8452944;28;20511;-88
2023/08/03 14:21:54;;;;;;;4.97;2.20;;;;;;;;;;8437613;28;20039;-89
2023/08/03 14:25:57;;;;;;;3.78;2.00;;;;;;;;;;8456652;28;20135;-88
2023/08/03 14:30:01;;;;;;;4.63;1.90;;;;;;;;;;8443223;28;20147;-88
2023/08/03 14:34:04;;;;;;;4.10;1.90;;;;;;;;;;8451782;28;20115;-87
2023/08/03 14:38:07;;;;;;;4.60;2.20;;;;;;;;;;8457380;28;20736;-91
2023/08/03 14:42:10;;;;;;;3.97;2.10;;;;;;;;;;8457433;28;20046;-87
2023/08/03 14:46:16;;;;;;;3.88;2.05;;;;;;;;;;8456872;28;20052;-88
2023/08/03 14:50:22;;;;;;;4.13;2.20;;;;;;;;;;8461879;28;20056;-91
2023/08/03 14:54:28;;;;;;;4.45;1.90;;;;;;;;;;8461474;28;20070;-92
2023/08/03 14:58:32;;;;;;;5.07;1.88;;;;;;;;;;8453565;28;20050;-88
2023/08/03 15:02:39;;;;;;;4.18;2.00;;;;;;;;;;8464762;28;20066;-90
2023/08/03 15:06:42;;;;;;;3.28;1.95;;;;;;;;;;8456882;28;20062;-91
2023/08/03 15:10:45;;;;;;;5.63;1.85;;;;;;;;;;8445627;28;20410;-93
2023/08/03 15:14:51;;;;;;;6.28;2.53;;;;;;;;;;8444799;28;20050;-88
2023/08/03 15:18:56;;;;;;;4.20;2.13;;;;;;;;;;8451006;28;20182;-92
2023/08/03 15:22:59;;;;;;;5.25;2.20;;;;;;;;;;8454933;28;20547;-89
2023/08/03 15:27:04;;;;;;;3.92;2.17;;;;;;;;;;8445013;28;20071;-91
2023/08/03 15:31:09;;;;;;;7.40;2.20;;;;;;;;;;8449584;28;20120;-89
2023/08/03 15:35:14;;;;;;;6.88;2.42;;;;;;;;;;8452229;28;20044;-91
2023/08/03 15:39:19;;;;;;;5.32;2.15;;;;;;;;;;8453009;28;20126;-91
2023/08/03 15:43:23;;;;;;;5.53;2.10;;;;;;;;;;8456716;28;20068;-87
2023/08/03 15:47:25;;;;;;;7.35;2.50;;;;;;;;;;8459154;28;20079;-88
2023/08/03 15:51:30;;;;;;;4.28;2.10;;;;;;;;;;8451323;28;20054;-88
2023/08/03 15:55:38;;;;;;;5.70;2.35;;;;;;;;;;8464862;28;20055;-87
2023/08/03 15:59:42;;;;;;;4.72;2.15;;;;;;;;;;8456549;28;20126;-92
2023/08/03 16:03:45;;;;;;;5.35;2.20;;;;;;;;;;8446503;28;20127;-87
2023/08/03 16:07:49;;;;;;;6.28;2.70;;;;;;;;;;8451834;28;20410;-92
2023/08/03 16:11:53;;;;;;;4.00;2.03;;;;;;;;;;8449154;28;20126;-89
2023/08/03 16:16:01;;;;;;;6.53;2.40;;;;;;;;;;8439847;28;20074;-88
2023/08/03 16:20:05;;;;;;;6.22;2.38;;;;;;;;;;8451059;28;20048;-86
2023/08/03 16:24:10;;;;;;;5.32;2.20;;;;;;;;;;8446330;28;20135;-91
2023/08/03 16:28:13;;;;;;;7.22;2.22;;;;;;;;;;8454039;28;20539;-87
2023/08/03 16:32:17;;;;;;;3.50;2.17;;;;;;;;;;8452261;28;20071;-86
2023/08/03 16:36:21;;;;;;;6.22;2.40;;;;;;;;;;8439756;28;20043;-88
2023/08/03 16:40:25;;;;;;;4.47;2.45;;;;;;;;;;8467155;28;20082;-94
2023/08/03 16:44:29;;;;;;;8.73;2.40;;;;;;;;;;8466831;28;20110;-86
2023/08/03 16:48:33;;;;;;;7.70;2.67;;;;;;;;;;8467849;28;20555;-91
2023/08/03 16:52:37;;;;;;;4.47;2.40;;;;;;;;;;8464205;28;20055;-89
2023/08/03 16:56:42;;;;;;;6.50;2.67;;;;;;;;;;8456810;28;20092;-89
2023/08/03 17:00:49;;;;;;;5.78;2.38;;;;;;;;;;8465839;28;20090;-88
2023/08/03 17:04:53;;;;;;;4.38;2.38;;;;;;;;;;8451285;27;20118;-90
2023/08/03 17:08:56;;;;;;;6.65;2.83;;;;;;;;;;8456659;28;20111;-90
2023/08/03 17:13:01;;;;;;;6.25;2.67;;;;;;;;;;8466374;28;20095;-92
2023/08/03 17:17:05;;;;;;;6.03;2.72;;;;;;;;;;8464593;28;20050;-92
2023/08/03 17:21:09;;;;;;;4.25;2.38;;;;;;;;;;8441152;28;20091;-91
2023/08/03 17:25:13;;;;;;;5.13;2.25;;;;;;;;;;8435894;28;20046;-93
2023/08/03 17:29:19;;;;;;;5.13;2.75;;;;;;;;;;8454373;28;20047;-90
2023/08/03 17:33:24;;;;;;;6.30;2.42;;;;;;;;;;8465816;28;20051;-94
2023/08/03 17:37:28;;;;;;;4.78;2.38;;;;;;;;;;8465173;28;20046;-93
2023/08/03 17:41:35;;;;;;;5.47;2.42;;;;;;;;;;8464895;28;20459;-92
2023/08/03 17:45:41;;;;;;;6.88;2.63;;;;;;;;;;8439565;28;20048;-93
2023/08/03 17:49:44;;;;;;;5.00;2.60;;;;;;;;;;8453321;28;20032;-88
2023/08/03 17:53:48;;;;;;;7.47;2.75;;;;;;;;;;8451425;28;20500;-89
2023/08/03 17:57:52;;;;;;;6.97;2.42;;;;;;;;;;8456683;28;20118;-87
2023/08/03 18:01:59;;;;;;;5.10;2.70;;;;;;;;;;8456205;28;20578;-88
2023/08/03 18:06:02;;;;;;;5.43;2.47;;;;;;;;;;8463906;28;20498;-88
2023/08/03 18:10:07;;;;;;;5.80;2.72;;;;;;;;;;8451679;28;20048;-94
2023/08/03 18:14:10;;;;;;;5.40;2.63;;;;;;;;;;8443530;28;20074;-89
2023/08/03 18:18:16;;;;;;;5.72;2.78;;;;;;;;;;8445285;28;20044;-92
2023/08/03 18:22:21;;;;;;;9.77;2.40;;;;;;;;;;8452736;28;20548;-86
2023/08/03 18:26:25;;;;;;;6.90;3.28;;;;;;;;;;8456616;28;20071;-91
2023/08/03 18:30:30;;;;;;;6.13;2.63;;;;;;;;;;8456652;28;20047;-86
2023/08/03 18:34:37;;;;;;;7.75;2.60;;;;;;;;;;8445082;28;20078;-93
2023/08/03 18:38:43;;;;;;;6.60;2.78;;;;;;;;;;8444544;28;20052;-92
2023/08/03 18:42:47;;;;;;;4.63;2.60;;;;;;;;;;8446553;28;20036;-86
2023/08/03 18:46:52;;;;;;;5.28;2.70;;;;;;;;;;8453848;28;20395;-88
2023/08/03 18:51:04;;;;;;;6.55;3.03;;;;;;;;;;8461551;28;20122;-93
2023/08/03 18:55:09;;;;;;;7.85;2.90;;;;;;;;;;8449341;28;20472;-89
2023/08/03 18:59:12;;;;;;;8.15;3.17;;;;;;;;;;8451954;28;20040;-91
2023/08/03 19:03:18;;;;;;;5.88;2.75;;;;;;;;;;8442374;28;20385;-95
2023/08/03 19:07:22;;;;;;;7.20;2.75;;;;;;;;;;8451727;28;20042;-93
2023/08/03 19:11:29;;;;;;;6.80;3.17;;;;;;;;;;8449990;28;20044;-93
2023/08/03 19:15:33;;;;;;;5.18;2.85;;;;;;;;;;8444690;28;20055;-87
2023/08/03 19:19:37;;;;;;;9.18;2.72;;;;;;;;;;8461234;28;20062;-90
2023/08/03 19:23:43;;;;;;;3.70;2.22;;;;;;;;;;8454677;28;20047;-85
2023/08/03 19:27:47;;;;;;;5.18;2.30;;;;;;;;;;8468685;28;20048;-88
2023/08/03 19:31:51;;;;;;;4.65;2.38;;;;;;;;;;8469004;28;20047;-89
2023/08/03 19:35:55;;;;;;;5.93;2.20;;;;;;;;;;8454840;28;20532;-88
2023/08/03 19:40:00;;;;;;;4.35;2.20;;;;;;;;;;8447419;28;20097;-88
2023/08/03 19:44:05;;;;;;;6.50;2.08;;;;;;;;;;8450070;28;20484;-89
2023/08/03 19:48:09;;;;;;;5.28;2.50;;;;;;;;;;8467691;28;20040;-91
2023/08/03 19:52:13;;;;;;;5.13;2.10;;;;;;;;;;8468059;28;20039;-86
2023/08/03 19:56:18;;;;;;;3.55;2.17;;;;;;;;;;8467603;28;20047;-86
2023/08/03 20:00:23;;;;;;;4.18;1.90;;;;;;;;;;8462647;28;20142;-92
2023/08/03 20:04:29;;;;;;;6.10;1.90;;;;;;;;;;8441312;28;20525;-85
2023/08/03 20:08:33;;;;;;;5.43;2.28;;;;;;;;;;8453787;28;20510;-86
2023/08/03 20:12:39;;;;;;;4.95;2.30;;;;;;;;;;8445628;28;20475;-87
2023/08/03 20:16:43;;;;;;;6.65;2.40;;;;;;;;;;8448884;28;20048;-91
2023/08/03 20:20:47;;;;;;;4.15;1.83;;;;;;;;;;8467346;28;20040;-92
2023/08/03 20:24:52;;;;;;;3.50;2.03;;;;;;;;;;8466776;27;20122;-87
2023/08/03 20:28:57;;;;;;;7.25;2.25;;;;;;;;;;8466832;28;20058;-85
2023/08/03 20:33:00;;;;;;;2.92;1.70;;;;;;;;;;8466235;28;20484;-86
2023/08/03 20:37:04;;;;;;;6.20;2.00;;;;;;;;;;8452640;28;20085;-86
2023/08/03 20:41:08;;;;;;;8.10;2.53;;;;;;;;;;8466070;28;20046;-90
2023/08/03 20:45:12;;;;;;;2.97;2.00;;;;;;;;;;8452691;28;20103;-85
2023/08/03 20:49:16;;;;;;;3.83;2.08;;;;;;;;;;8464731;28;20052;-87
2023/08/03 20:53:18;;;;;;;3.17;1.90;;;;;;;;;;8466547;28;20464;-86
2023/08/03 20:57:21;;;;;;;5.05;1.90;;;;;;;;;;8452117;28;20048;-88
2023/08/03 21:01:26;;;;;;;4.45;2.00;;;;;;;;;;8464979;28;20139;-87
2023/08/03 21:05:29;;;;;;;4.93;2.20;;;;;;;;;;8465090;27;20145;-86
2023/08/03 21:09:32;;;;;;;3.97;1.80;;;;;;;;;;8444545;28;20131;-86
2023/08/03 21:13:35;;;;;;;8.23;2.03;;;;;;;;;;8445876;28;20044;-92
2023/08/03 21:17:39;;;;;;;5.90;2.20;;;;;;;;;;8445607;28;20570;-87
2023/08/03 21:21:43;;;;;;;4.32;2.20;;;;;;;;;;8458323;28;20067;-88
2023/08/03 21:25:46;;;;;;;3.95;2.10;;;;;;;;;;8451457;28;20499;-91
2023/08/03 21:29:51;;;;;;;5.20;1.83;;;;;;;;;;8447556;28;20115;-92
2023/08/03 21:33:55;;;;;;;4.75;2.10;;;;;;;;;;8431659;28;20472;-87
2023/08/03 21:37:58;;;;;;;5.63;2.20;;;;;;;;;;8448109;28;20065;-88
2023/08/03 21:42:01;;;;;;;6.50;2.40;;;;;;;;;;8453454;28;20040;-87
2023/08/03 21:46:04;;;;;;;5.78;2.20;;;;;;;;;;8442987;28;20119;-86
2023/08/03 21:50:10;;;;;;;4.45;2.00;;;;;;;;;;8430622;28;20055;-87
2023/08/03 21:54:17;;;;;;;4.78;2.47;;;;;;;;;;8461721;28;20130;-88
2023/08/03 21:58:20;;;;;;;5.63;2.13;;;;;;;;;;8451784;28;20468;-86
2023/08/03 22:02:24;;;;;;;5.10;2.00;;;;;;;;;;8461375;28;20185;-91
2023/08/03 22:06:28;;;;;;;6.47;2.15;;;;;;;;;;8464084;28;20046;-90
2023/08/03 22:10:31;;;;;;;4.35;1.80;;;;;;;;;;8450288;28;20062;-88
2023/08/03 22:14:35;;;;;;;3.88;1.95;;;;;;;;;;8463790;28;20483;-86
2023/08/03 22:18:38;;;;;;;4.28;2.22;;;;;;;;;;8462947;28;20122;-90
2023/08/03 22:22:42;;;;;;;4.25;2.03;;;;;;;;;;8452049;28;20411;-87
2023/08/03 22:26:45;;;;;;;2.90;1.95;;;;;;;;;;8457226;28;20036;-86
2023/08/03 22:30:48;;;;;;;4.30;2.10;;;;;;;;;;8454645;28;20491;-90
2023/08/03 22:34:51;;;;;;;6.53;2.40;;;;;;;;;;8463232;28;20487;-86
2023/08/03 22:38:56;;;;;;;4.20;2.22;;;;;;;;;;8463204;28;20047;-91
2023/08/03 22:43:01;;;;;;;5.15;1.90;;;;;;;;;;8445236;28;20070;-88
2023/08/03 22:47:05;;;;;;;5.00;2.13;;;;;;;;;;8447720;28;20040;-87
2023/08/03 22:51:07;;;;;;;3.72;1.88;;;;;;;;;;8457317;28;20709;-86
2023/08/03 22:55:12;;;;;;;5.22;2.05;;;;;;;;;;8457960;28;20161;-86
2023/08/03 22:59:15;;;;;;;5.47;2.22;;;;;;;;;;8455172;28;20406;-87
2023/08/03 23:03:17;;;;;;;5.28;2.30;;;;;;;;;;8457870;28;20052;-85
2023/08/03 23:07:20;;;;;;;5.15;2.20;;;;;;;;;;8462791;28;20062;-87
2023/08/03 23:11:24;;;;;;;8.63;2.30;;;;;;;;;;8449145;28;20040;-88
2023/08/03 23:15:27;;;;;;;4.88;2.30;;;;;;;;;;8435215;28;20054;-86
2023/08/03 23:19:30;;;;;;;5.25;2.60;;;;;;;;;;8460780;28;20044;-87
2023/08/03 23:23:33;;;;;;;5.70;2.25;;;;;;;;;;8454868;28;20114;-89
2023/08/03 23:27:37;;;;;;;8.73;2.40;;;;;;;;;;8455760;28;20463;-86
2023/08/03 23:31:40;;;;;;;5.07;2.88;;;;;;;;;;8454347;28;20046;-88
2023/08/03 23:35:43;;;;;;;5.85;2.20;;;;;;;;;;8443408;28;20040;-86
2023/08/03 23:39:45;;;;;;;6.68;2.60;;;;;;;;;;8461730;28;20039;-88
2023/08/03 23:43:49;;;;;;;9.02;2.90;;;;;;;;;;8446103;28;20044;-86
2023/08/03 23:47:52;;;;;;;7.85;2.47;;;;;;;;;;8468009;28;20046;-85
2023/08/03 23:51:55;;;;;;;4.40;2.35;;;;;;;;;;8442391;28;20048;-85
2023/08/03 23:55:58;;;;;;;6.78;2.80;;;;;;;;;;8461035;28;20040;-86
